deformed-offering

Nearby METAR Reports

 

KSJC - San Jose, California, USA
Distance from station: NE 9mi, 14km
Updated: Sat, 26-Sep-2020 3:53am PDT
Clear
Clear
 Wind from calm
Wind: Calm
Temperature: 61°F , 16°C
Dew Point: 52°F , 11°C
Humidity: 72%
Barometer: 30.04 inHg , 1017.3 hPa
Clouds: Clear
Visibility: 10 miles , 16 km
2020/09/26 10:53 KSJC 261053Z AUTO 00000KT 10SM CLR 16/11 A3004 RMK AO2 SLP172 T01560106
KRHV - San Jose/Reid, California, USA
Distance from station: ENE 12mi, 19km
Updated: Fri, 25-Sep-2020 9:50pm PDT
NOT Current
Clear
Clear
 Wind from calm
Wind: Calm
Temperature: 64°F , 18°C
Dew Point: 54°F , 12°C
Humidity: 68%
Barometer: 30.04 inHg , 1017.3 hPa
Clouds: Clear
Visibility: 10 miles , 16 km
2020/09/26 04:50 KRHV 260450Z 00000KT 10SM SKC 18/12 A3004 RMK LAST
 
KPAO - Palo Alto, California, USA
Distance from station: NNW 14mi, 23km
Updated: Fri, 25-Sep-2020 6:47pm PDT
NOT Current
Clear
Clear
 Wind from NW
Wind: NW 12 mph , 19 km/h
Temperature: 72°F , 22°C
Dew Point: 52°F , 11°C
Humidity: 50%
Barometer: 30.00 inHg , 1015.9 hPa
Clouds: Clear
Visibility: 10 miles , 16 km
2020/09/26 01:47 KPAO 260147Z 31010KT 10SM SKC 22/11 A3000 RMK LAST
KSQL - San Carlos Airpo, California, USA
Distance from station: NW 21mi, 34km
Updated: Sat, 26-Sep-2020 3:55am PDT
Clear
Clear
 Wind from calm
Wind: Calm
Temperature: 61°F , 16°C
Dew Point: 54°F , 12°C
Humidity: 77%
Barometer: 30.05 inHg , 1017.6 hPa
Clouds: Clear
Visibility: 10 miles , 16 km
2020/09/26 10:55 KSQL 261055Z AUTO 00000KT 10SM CLR 16/12 A3005 RMK AO2
 
KWVI - Watsonville, California, USA
Distance from station: SSE 27mi, 44km
Updated: Sat, 26-Sep-2020 3:53am PDT
Clear
Clear
 Wind from calm
Wind: Calm
Temperature: 52°F , 11°C
Dew Point: 52°F , 11°C
Humidity: 100%
Barometer: 30.04 inHg , 1017.3 hPa
Clouds: Clear
Visibility: 10 miles , 16 km
2020/09/26 10:53 KWVI 261053Z AUTO 00000KT 10SM CLR 11/11 A3004 RMK AO2 SLP171 T01110106
KHWD - Hayward, California, USA
Distance from station: N 28mi, 44km
Updated: Sat, 26-Sep-2020 3:54am PDT
Clear
Clear
 Wind from ENE
Wind: ENE 3 mph , 6 km/h
Temperature: 61°F , 16°C
Dew Point: 52°F , 11°C
Humidity: 72%
Barometer: 30.03 inHg , 1016.9 hPa
Clouds: Clear
Visibility: 10 miles , 16 km
2020/09/26 10:54 KHWD 261054Z AUTO 07003KT 10SM CLR 16/11 A3003 RMK AO2 SLP179 T01610111
 
KSFO - San Francisco, California, USA
Distance from station: NW 30mi, 49km
Updated: Sat, 26-Sep-2020 3:56am PDT
Clear
Clear
 Wind from SW
Wind: SW 5 mph , 7 km/h
Temperature: 61°F , 16°C
Dew Point: 55°F , 13°C
Humidity: 83%
Barometer: 30.03 inHg , 1016.9 hPa
Clouds: Clear
Visibility: 10 miles , 16 km
2020/09/26 10:56 KSFO 261056Z 22004KT 10SM CLR 16/13 A3003 RMK AO2 SLP169 T01560128
KHAF - Half Moon Bay, California, USA
Distance from station: WNW 31mi, 50km
Updated: Sat, 26-Sep-2020 3:55am PDT
Mist, Clear
Mist, Clear
 Wind from ESE
Wind: ESE 3 mph , 6 km/h
Temperature: 57°F , 14°C
Dew Point: 55°F , 13°C
Humidity: 94%
Barometer: 30.05 inHg , 1017.6 hPa
Summary: Mist
Clouds: Clear
Visibility: 5 miles , 8 km
2020/09/26 10:55 KHAF 261055Z AUTO 11003KT 5SM BR CLR 14/13 A3005 RMK AO2
 
KLVK - Livermore, California, USA
Distance from station: NNE 31mi, 51km
Updated: Sat, 26-Sep-2020 3:53am PDT
Clear
Clear
 Wind from calm
Wind: Calm
Temperature: 59°F , 15°C
Dew Point: 54°F , 12°C
Humidity: 82%
Barometer: 30.04 inHg , 1017.3 hPa
Clouds: Clear
Visibility: 10 miles , 16 km
2020/09/26 10:53 KLVK 261053Z AUTO 00000KT 10SM CLR 15/12 A3004 RMK AO2 SLP167 T01500117
KOAK - Oakland, California, USA
Distance from station: NNW 33mi, 53km
Updated: Sat, 26-Sep-2020 3:53am PDT
Clear
Clear
 Wind from E
Wind: E 5 mph , 7 km/h
Temperature: 61°F , 16°C
Dew Point: 55°F , 13°C
Humidity: 83%
Barometer: 30.04 inHg , 1017.3 hPa
Clouds: Clear
Visibility: 10 miles , 16 km
2020/09/26 10:53 KOAK 261053Z 10004KT 10SM CLR 16/13 A3004 RMK AO2 SLP170 T01610128
 
KCVH - Hollister Muni, California, USA
Distance from station: SE 42mi, 68km
Updated: Fri, 25-Sep-2020 11:35am PDT
NOT Current
Clear
Clear
 Wind from calm
Wind: Calm
Temperature: 72°F , 22°C
Dew Point: 50°F , 10°C
Humidity: 47%
Barometer: 30.06 inHg , 1017.9 hPa
Clouds: Clear
Visibility: 9 miles , 14 km
2020/09/25 18:35 KCVH 251835Z AUTO 00000KT 9SM CLR 22/10 A3006 RMK A01
KSNS - Salinas, California, USA
Distance from station: SSE 48mi, 77km
Updated: Sat, 26-Sep-2020 3:53am PDT
Clear
Clear
 Wind from NNW
Wind: NNW 6 mph , 9 km/h
Temperature: 57°F , 14°C
Dew Point: 54°F , 12°C
Humidity: 88%
Barometer: 30.03 inHg , 1016.9 hPa
Clouds: Clear
Visibility: 10 miles , 16 km
2020/09/26 10:53 KSNS 261053Z AUTO 34005KT 10SM CLR 14/12 A3003 RMK AO2 SLP177 T01440117
 
KMRY - Monterey, California, USA
Distance from station: SSE 49mi, 78km
Updated: Sat, 26-Sep-2020 3:54am PDT
Clear
Clear
 Wind from SE
Wind: SE 3 mph , 6 km/h
Barometer: 30.04 inHg , 1017.3 hPa
Clouds: Clear
Visibility: 10 miles , 16 km
2020/09/26 10:54 KMRY 261054Z AUTO 14003KT 10SM CLR A3004 RMK AO2 SLPNO $
KCCR - Concord, California, USA
Distance from station: N 50mi, 81km
Updated: Sat, 26-Sep-2020 3:53am PDT
Clear
Clear
 Wind from S
Wind: S 5 mph , 7 km/h
Temperature: 64°F , 18°C
Dew Point: 52°F , 11°C
Humidity: 64%
Barometer: 30.02 inHg , 1016.6 hPa
Clouds: Clear
Visibility: 10 miles , 16 km
2020/09/26 10:53 KCCR 261053Z AUTO 17004KT 10SM CLR 18/11 A3002 RMK AO2 SLP152 T01780111
deformed-offering